マニラ/ニノイ・アキノ の空港の天気 - METARとTAF

ニノイ・アキノ国際空港 ( RPLL / MNL ) - フィリピン マニラ
飛行場実況気象(Metar)
観測時間02/28 04:00 PHT (02/27 20:00 UTC)
風向・風速東北東 3m/s
視程10km以上
天気現象
全天の4割程度の雲 雲底高度 700m
全天の8割程度の雲 雲底高度 2740m
気温25℃
湿度94%
気圧1013hPa
METARRPLL 272000Z 06005KT 9999 SCT023 BKN090 25/24 Q1013 NOSIG RMK A2991
過去の天気等 Google飛行場航空写真 Wunderground天気予報

過去48時間のMETAR

飛行場予報(TAF)
発表時間: 2/28 01:00 PHT (2/27 17:00 UTC)
予報対象時間: 28日2時 PHT ~ 1日8時 PHT
風向・風速東南東 4m/s
視程10km以上
少しの雲 雲底高度 760m
全天の4割程度の雲 雲底高度 3,050m
28日2時 PHT ~ 28日8時 PHT に一時的に
風向・風速東 3m/s
少しの雲 雲底高度 700m
全天の4割程度の雲 雲底高度 3,050m
28日14時 PHT ~ 28日20時 PHT に一時的に
風向・風速東南東 5m/s
少しの雲 雲底高度 760m
全天の4割程度の雲 雲底高度 9,140m
TAF RPLL 271700Z 2718/2824 11008KT 9999 FEW025 SCT100 TX33/2806Z TN25/2721Z
TEMPO 2718/2724 09006KT FEW023 SCT100
TEMPO 2806/2812 12010KT FEW025 SCT300